Time;durP1;ratioP1;P1;durP2;ratioP2;P2;SDS_P1;SDS_P2;PMS_P1;PMS_P2;Temp;Humidity;BMP_temperature;BMP_pressure;BME280_temperature;BME280_humidity;BME280_pressure;Samples;Min_cycle;Max_cycle;Signal;HPM_P1;HPM_P2
2023/09/17 00:01:52;;;;;;;0.10;0.10;;;;;;;16.79;100.00;101195.78;5116105;28;20031;-45
2023/09/17 00:04:17;;;;;;;0.08;0.08;;;;;;;16.76;100.00;101206.19;5114969;28;20032;-47
2023/09/17 00:06:43;;;;;;;0.10;0.10;;;;;;;16.77;100.00;101205.34;5116051;28;20024;-46
2023/09/17 00:09:08;;;;;;;0.00;0.00;;;;;;;16.74;100.00;101202.69;5115844;28;20095;-46
2023/09/17 00:11:34;;;;;;;0.10;0.10;;;;;;;16.76;100.00;101198.38;5114656;28;20031;-44
2023/09/17 00:13:59;;;;;;;0.05;0.05;;;;;;;16.74;100.00;101196.63;5115663;28;20158;-46
2023/09/17 00:16:30;;;;;;;0.10;0.10;;;;;;;16.70;100.00;101195.72;5114765;28;20032;-44
2023/09/17 00:18:57;;;;;;;0.10;0.10;;;;;;;16.67;100.00;101185.28;5115501;28;20482;-45
2023/09/17 00:21:22;;;;;;;0.10;0.10;;;;;;;16.67;100.00;101173.97;5115327;28;20024;-47
2023/09/17 00:23:48;;;;;;;0.10;0.10;;;;;;;16.65;100.00;101176.56;5114798;28;20034;-45
2023/09/17 00:26:13;;;;;;;0.10;0.10;;;;;;;16.63;100.00;101173.09;5115062;28;20027;-49
2023/09/17 00:28:38;;;;;;;0.05;0.05;;;;;;;16.61;100.00;101169.59;5115640;28;20459;-45
2023/09/17 00:31:03;;;;;;;0.00;0.00;;;;;;;16.61;100.00;101159.19;5114735;28;20156;-45
2023/09/17 00:33:29;;;;;;;0.10;0.10;;;;;;;16.58;100.00;101156.56;5115171;28;20475;-48
2023/09/17 00:35:54;;;;;;;0.10;0.10;;;;;;;16.56;100.00;101166.09;5115499;28;20053;-44
2023/09/17 00:38:20;;;;;;;0.10;0.10;;;;;;;16.57;100.00;101180.84;5114108;28;20445;-44
2023/09/17 00:40:45;;;;;;;0.03;0.03;;;;;;;16.52;100.00;101177.31;5115158;28;20026;-47
2023/09/17 00:43:11;;;;;;;0.10;0.10;;;;;;;16.53;100.00;101184.28;5114972;28;20479;-47
2023/09/17 00:45:38;;;;;;;0.10;0.10;;;;;;;16.51;100.00;101185.97;5113613;28;20031;-49
2023/09/17 00:48:04;;;;;;;0.10;0.10;;;;;;;16.49;100.00;101193.78;5115076;28;20352;-45
2023/09/17 00:50:31;;;;;;;0.00;0.00;;;;;;;16.44;100.00;101188.50;5114922;28;20028;-44
2023/09/17 00:52:57;;;;;;;0.10;0.10;;;;;;;16.42;100.00;101190.25;5114093;28;20413;-49
2023/09/17 00:55:22;;;;;;;0.10;0.10;;;;;;;16.38;100.00;101195.38;5114403;28;20516;-45
2023/09/17 00:57:48;;;;;;;0.10;0.10;;;;;;;16.25;100.00;101184.81;5114725;28;20134;-47
2023/09/17 01:00:14;;;;;;;0.03;0.03;;;;;;;16.11;100.00;101182.09;5113904;28;20064;-44
2023/09/17 01:02:42;;;;;;;0.00;0.00;;;;;;;15.93;100.00;101174.94;5114720;28;20114;-44
2023/09/17 01:05:08;;;;;;;0.10;0.10;;;;;;;15.83;100.00;101170.47;5114843;28;20117;-47
2023/09/17 01:07:35;;;;;;;0.00;0.00;;;;;;;15.70;100.00;101173.69;5113618;28;20059;-44
2023/09/17 01:10:01;;;;;;;0.10;0.10;;;;;;;15.58;100.00;101172.69;5114624;28;20114;-44
2023/09/17 01:12:27;;;;;;;0.10;0.10;;;;;;;15.45;100.00;101170.75;5114242;28;20106;-49
2023/09/17 01:14:52;;;;;;;0.00;0.00;;;;;;;15.42;100.00;101176.78;5113619;28;20028;-44
2023/09/17 01:17:18;;;;;;;0.10;0.10;;;;;;;15.29;100.00;101167.06;5114199;27;20079;-46
2023/09/17 01:19:44;;;;;;;0.00;0.00;;;;;;;15.26;100.00;101169.59;5113739;28;20031;-48
2023/09/17 01:22:12;;;;;;;0.10;0.10;;;;;;;15.21;100.00;101173.84;5114463;28;20027;-45
2023/09/17 01:24:43;;;;;;;0.10;0.10;;;;;;;15.21;100.00;101168.66;5114302;28;20055;-45
2023/09/17 01:27:11;;;;;;;0.03;0.03;;;;;;;15.11;100.00;101159.88;5113474;28;20386;-45
2023/09/17 01:29:38;;;;;;;0.10;0.10;;;;;;;15.08;100.00;101145.13;5114098;27;20027;-46
2023/09/17 01:32:07;;;;;;;0.00;0.00;;;;;;;15.02;100.00;101144.16;5114302;28;20072;-46
2023/09/17 01:34:37;;;;;;;0.10;0.10;;;;;;;14.98;100.00;101145.81;5113140;28;20024;-44
2023/09/17 01:37:07;;;;;;;0.10;0.10;;;;;;;14.93;100.00;101145.72;5114194;28;20108;-46
2023/09/17 01:39:40;;;;;;;0.10;0.10;;;;;;;14.93;100.00;101147.47;5113881;28;20023;-46
2023/09/17 01:42:06;;;;;;;0.10;0.10;;;;;;;14.91;100.00;101138.75;5113480;28;20390;-48
2023/09/17 01:44:33;;;;;;;0.10;0.10;;;;;;;14.88;100.00;101143.91;5113701;28;20482;-46
2023/09/17 01:47:00;;;;;;;0.10;0.10;;;;;;;14.89;100.00;101137.88;5114088;28;20069;-49
2023/09/17 01:49:27;;;;;;;0.10;0.10;;;;;;;14.88;100.00;101141.31;5112725;28;20102;-45
2023/09/17 01:51:56;;;;;;;0.10;0.10;;;;;;;14.86;100.00;101128.31;5113893;28;20351;-46
2023/09/17 01:54:22;;;;;;;0.10;0.10;;;;;;;14.86;100.00;101132.63;5113683;28;20026;-49
2023/09/17 01:56:48;;;;;;;0.10;0.10;;;;;;;14.85;100.00;101121.38;5113083;28;20048;-44
2023/09/17 01:59:13;;;;;;;0.10;0.10;;;;;;;14.87;100.00;101129.19;5113392;28;20027;-47
2023/09/17 02:01:39;;;;;;;0.10;0.10;;;;;;;14.86;100.00;101117.06;5113776;28;20030;-45
2023/09/17 02:04:04;;;;;;;0.10;0.10;;;;;;;14.84;100.00;101111.84;5112722;28;20429;-48
2023/09/17 02:06:29;;;;;;;0.10;0.10;;;;;;;14.84;100.00;101108.41;5113205;28;20027;-44
2023/09/17 02:08:55;;;;;;;0.10;0.10;;;;;;;14.82;100.00;101110.94;5112911;28;20035;-45
2023/09/17 02:11:20;;;;;;;0.10;0.10;;;;;;;14.80;100.00;101110.91;5113376;28;20106;-44
2023/09/17 02:13:46;;;;;;;0.10;0.10;;;;;;;14.82;100.00;101117.03;5113673;28;20027;-46
2023/09/17 02:16:11;;;;;;;0.10;0.10;;;;;;;14.82;100.00;101124.81;5112719;28;20051;-45
2023/09/17 02:18:37;;;;;;;0.10;0.10;;;;;;;14.85;100.00;101126.56;5113278;28;20024;-45
2023/09/17 02:21:02;;;;;;;0.10;0.10;;;;;;;14.85;100.00;101126.56;5113258;28;20527;-46
2023/09/17 02:23:27;;;;;;;0.10;0.10;;;;;;;14.89;100.00;101132.69;5112378;28;20539;-48
2023/09/17 02:25:53;;;;;;;0.10;0.10;;;;;;;14.87;100.00;101124.00;5113422;28;20024;-44
2023/09/17 02:28:18;;;;;;;0.10;0.10;;;;;;;14.90;100.00;101118.84;5112944;28;20027;-45
2023/09/17 02:30:43;;;;;;;0.10;0.10;;;;;;;14.86;100.00;101112.75;5112563;28;20111;-44
2023/09/17 02:33:10;;;;;;;0.10;0.10;;;;;;;14.89;100.00;101117.13;5113239;28;20042;-44
2023/09/17 02:35:36;;;;;;;0.05;0.05;;;;;;;14.88;100.00;101103.25;5113039;28;20034;-44
2023/09/17 02:38:03;;;;;;;0.10;0.10;;;;;;;14.88;100.00;101110.19;5112624;28;20482;-45
2023/09/17 02:40:29;;;;;;;0.00;0.00;;;;;;;14.86;100.00;101109.28;5113065;28;20019;-47
2023/09/17 02:42:54;;;;;;;0.10;0.10;;;;;;;14.85;100.00;101098.03;5113382;28;20026;-45
2023/09/17 02:45:20;;;;;;;0.10;0.10;;;;;;;14.86;100.00;101096.31;5112251;28;20026;-45
2023/09/17 02:47:45;;;;;;;0.10;0.10;;;;;;;14.79;100.00;101088.41;5113039;28;20024;-44
2023/09/17 02:50:11;;;;;;;0.10;0.10;;;;;;;14.76;100.00;101087.50;5113095;28;20051;-47
2023/09/17 02:52:36;;;;;;;0.10;0.10;;;;;;;14.73;100.00;101077.06;5112224;28;20023;-46
2023/09/17 02:55:04;;;;;;;0.10;0.10;;;;;;;14.67;100.00;101083.03;5113152;28;20394;-46
2023/09/17 02:57:30;;;;;;;0.03;0.03;;;;;;;14.58;100.00;101080.25;5112644;28;20036;-48
2023/09/17 02:59:55;;;;;;;0.10;0.10;;;;;;;14.53;100.00;101075.00;5112361;28;20028;-48
2023/09/17 03:02:21;;;;;;;0.10;0.10;;;;;;;14.44;100.00;101074.84;5112796;28;20035;-48
2023/09/17 03:04:46;;;;;;;0.10;0.10;;;;;;;14.36;100.00;101074.69;5113276;28;20175;-47
2023/09/17 03:07:11;;;;;;;0.10;0.10;;;;;;;14.31;100.00;101076.34;5112998;28;20020;-44
2023/09/17 03:09:38;;;;;;;0.10;0.10;;;;;;;14.23;100.00;101077.91;5117188;28;20027;-47
2023/09/17 03:12:04;;;;;;;0.10;0.10;;;;;;;14.16;100.00;101077.81;5117009;28;20034;-45
2023/09/17 03:14:29;;;;;;;0.10;0.10;;;;;;;14.11;100.00;101073.38;5116079;28;20019;-46
2023/09/17 03:16:55;;;;;;;0.10;0.10;;;;;;;14.04;100.00;101072.38;5116855;28;20034;-45
2023/09/17 03:19:20;;;;;;;0.13;0.13;;;;;;;13.99;100.00;101063.66;5115629;27;20023;-45
2023/09/17 03:21:45;;;;;;;0.10;0.10;;;;;;;13.93;100.00;101059.25;5116920;28;20031;-46
2023/09/17 03:24:11;;;;;;;0.10;0.10;;;;;;;13.90;100.00;101068.66;5116736;28;20462;-45
2023/09/17 03:26:39;;;;;;;0.10;0.10;;;;;;;13.86;100.00;101069.44;5116003;28;20027;-46
2023/09/17 03:29:06;;;;;;;0.10;0.10;;;;;;;13.83;100.00;101063.34;5116755;28;20031;-46
2023/09/17 03:31:32;;;;;;;0.20;0.20;;;;;;;13.81;100.00;101072.84;5116206;28;20023;-45
2023/09/17 03:33:57;;;;;;;0.10;0.10;;;;;;;13.82;100.00;101074.56;5115973;28;20023;-44
2023/09/17 03:36:23;;;;;;;0.10;0.10;;;;;;;13.82;100.00;101079.75;5116141;28;20034;-45
2023/09/17 03:38:48;;;;;;;0.10;0.10;;;;;;;13.81;100.00;101067.66;5116388;28;20035;-45
2023/09/17 03:41:13;;;;;;;0.10;0.10;;;;;;;13.81;100.00;101070.25;5115436;28;20105;-45
2023/09/17 03:43:38;;;;;;;0.10;0.10;;;;;;;13.80;100.00;101068.50;5116360;28;20364;-45
2023/09/17 03:46:04;;;;;;;0.08;0.08;;;;;;;13.83;100.00;101070.25;5116190;28;20024;-47
2023/09/17 03:48:31;;;;;;;0.10;0.10;;;;;;;13.83;100.00;101063.34;5115406;28;20149;-45
2023/09/17 03:50:57;;;;;;;0.10;0.10;;;;;;;13.86;100.00;101066.88;5116366;28;20020;-47
2023/09/17 03:53:23;;;;;;;0.10;0.10;;;;;;;13.89;100.00;101061.72;5116060;28;20023;-44
2023/09/17 03:55:48;;;;;;;0.10;0.10;;;;;;;13.94;100.00;101070.47;5115190;28;20383;-44
2023/09/17 03:58:14;;;;;;;0.10;0.10;;;;;;;13.97;100.00;101073.13;5115475;28;20040;-46
2023/09/17 04:00:43;;;;;;;0.10;0.10;;;;;;;13.95;100.00;101067.91;5115965;27;20024;-45
2023/09/17 04:03:08;;;;;;;0.10;0.10;;;;;;;14.01;100.00;101072.34;5115403;28;20054;-44
2023/09/17 04:05:34;;;;;;;0.10;0.10;;;;;;;14.03;100.00;101074.97;5115842;28;20051;-46
2023/09/17 04:08:00;;;;;;;0.10;0.10;;;;;;;14.11;100.00;101073.38;5115982;28;20027;-46
2023/09/17 04:10:26;;;;;;;0.10;0.10;;;;;;;14.10;100.00;101072.50;5114789;28;20027;-45
2023/09/17 04:12:51;;;;;;;0.10;0.10;;;;;;;14.12;100.00;101069.94;5115802;28;20381;-45
2023/09/17 04:15:19;;;;;;;0.10;0.10;;;;;;;14.15;100.00;101063.09;5115296;28;20352;-47
2023/09/17 04:17:45;;;;;;;0.10;0.10;;;;;;;14.15;100.00;101059.63;5115011;28;20027;-45
2023/09/17 04:20:13;;;;;;;0.10;0.10;;;;;;;14.17;100.00;101057.94;5114730;28;20047;-45
2023/09/17 04:22:40;;;;;;;0.13;0.13;;;;;;;14.19;100.00;101052.78;5114911;28;20277;-47
2023/09/17 04:25:06;;;;;;;0.10;0.10;;;;;;;14.20;100.00;101062.31;5115530;28;20530;-48
2023/09/17 04:27:32;;;;;;;0.10;0.10;;;;;;;14.20;100.00;101057.97;5115250;27;20107;-45
2023/09/17 04:29:57;;;;;;;0.10;0.10;;;;;;;14.21;100.00;101048.50;5114521;28;20368;-44
2023/09/17 04:32:23;;;;;;;0.10;0.10;;;;;;;14.24;100.00;101053.72;5114996;28;20020;-44
2023/09/17 04:34:48;;;;;;;0.10;0.10;;;;;;;14.28;100.00;101055.53;5115593;28;20016;-48
2023/09/17 04:37:19;;;;;;;0.10;0.10;;;;;;;14.30;100.00;101051.25;5114190;28;20502;-45
2023/09/17 04:39:46;;;;;;;0.10;0.10;;;;;;;14.29;100.00;101052.97;5115398;28;20055;-46
2023/09/17 04:42:11;;;;;;;0.10;0.10;;;;;;;14.31;100.00;101053.00;5115317;28;20076;-46
2023/09/17 04:44:36;;;;;;;0.10;0.10;;;;;;;14.32;100.00;101059.94;5114190;28;20032;-46
2023/09/17 04:47:02;;;;;;;0.15;0.15;;;;;;;14.33;100.00;101052.19;5115339;28;20114;-49
2023/09/17 04:49:28;;;;;;;0.10;0.10;;;;;;;14.35;100.00;101047.03;5114814;28;20031;-46
2023/09/17 04:51:53;;;;;;;0.00;0.00;;;;;;;14.37;100.00;101050.53;5114560;28;20390;-45
2023/09/17 04:54:20;;;;;;;0.10;0.10;;;;;;;14.36;100.00;101048.78;5114893;28;20032;-49
2023/09/17 04:56:45;;;;;;;0.10;0.10;;;;;;;14.35;100.00;101044.44;5114762;28;20062;-46
2023/09/17 04:59:10;;;;;;;0.10;0.10;;;;;;;14.37;100.00;101047.03;5113906;28;20088;-46
2023/09/17 05:01:36;;;;;;;0.10;0.10;;;;;;;14.39;100.00;101043.63;5114389;28;20428;-46
2023/09/17 05:04:02;;;;;;;0.10;0.10;;;;;;;14.41;100.00;101048.84;5114855;28;20046;-47
2023/09/17 05:06:27;;;;;;;0.10;0.10;;;;;;;14.40;100.00;101047.97;5113640;28;20408;-49
2023/09/17 05:08:52;;;;;;;0.10;0.10;;;;;;;14.42;100.00;101054.06;5114781;28;20535;-46
2023/09/17 05:11:18;;;;;;;0.10;0.10;;;;;;;14.42;100.00;101056.66;5114364;28;20030;-45
2023/09/17 05:13:43;;;;;;;0.10;0.10;;;;;;;14.44;100.00;101056.69;5113652;28;20020;-48
2023/09/17 05:16:08;;;;;;;0.10;0.10;;;;;;;14.44;100.00;101052.34;5114456;28;20023;-44
2023/09/17 05:18:33;;;;;;;0.10;0.10;;;;;;;14.45;100.00;101059.28;5114235;28;20045;-44
2023/09/17 05:20:59;;;;;;;0.10;0.10;;;;;;;14.45;100.00;101058.44;5113704;28;20024;-45
2023/09/17 05:23:25;;;;;;;0.10;0.10;;;;;;;14.46;100.00;101061.06;5114190;27;20024;-46
2023/09/17 05:25:50;;;;;;;0.10;0.10;;;;;;;14.49;100.00;101061.09;5113488;28;20058;-44
2023/09/17 05:28:16;;;;;;;0.10;0.10;;;;;;;14.51;100.00;101061.09;5113821;28;20168;-48
2023/09/17 05:30:41;;;;;;;0.10;0.10;;;;;;;14.52;100.00;101059.41;5114114;28;20473;-47
2023/09/17 05:33:07;;;;;;;0.10;0.10;;;;;;;14.52;100.00;101064.59;5113411;28;20037;-46
2023/09/17 05:35:39;;;;;;;0.10;0.10;;;;;;;14.55;100.00;101073.31;5113782;28;20466;-45
2023/09/17 05:38:04;;;;;;;0.10;0.10;;;;;;;14.54;100.00;101068.06;5114009;28;20568;-47
2023/09/17 05:40:30;;;;;;;0.10;0.10;;;;;;;14.53;100.00;101066.34;5113103;28;20118;-47
2023/09/17 05:42:57;;;;;;;0.10;0.10;;;;;;;14.53;100.00;101071.53;5113989;28;20028;-47
2023/09/17 05:45:23;;;;;;;0.10;0.10;;;;;;;14.56;100.00;101066.38;5113530;28;20028;-45
2023/09/17 05:47:49;;;;;;;0.10;0.10;;;;;;;14.54;100.00;101073.25;5113206;28;20038;-47
2023/09/17 05:50:14;;;;;;;0.10;0.10;;;;;;;14.57;100.00;101062.94;5113618;28;20015;-47
2023/09/17 05:52:39;;;;;;;0.10;0.10;;;;;;;14.58;100.00;101075.06;5113833;28;20115;-48
2023/09/17 05:55:05;;;;;;;0.10;0.10;;;;;;;14.60;100.00;101069.06;5113206;28;20084;-49
2023/09/17 05:57:31;;;;;;;0.10;0.10;;;;;;;14.62;100.00;101069.94;5113745;28;20066;-46
2023/09/17 05:59:57;;;;;;;0.10;0.10;;;;;;;14.65;100.00;101063.97;5114451;28;20102;-44
2023/09/17 06:02:22;;;;;;;0.05;0.05;;;;;;;14.68;100.00;101073.53;5112723;28;20031;-47
2023/09/17 06:04:52;;;;;;;0.10;0.10;;;;;;;14.73;100.00;101070.19;5113701;28;20020;-44
2023/09/17 06:07:20;;;;;;;0.10;0.10;;;;;;;14.79;100.00;101067.66;5113351;28;20023;-44
2023/09/17 06:09:46;;;;;;;0.10;0.10;;;;;;;14.80;100.00;101066.81;5112578;28;20374;-45
2023/09/17 06:12:12;;;;;;;0.10;0.10;;;;;;;14.81;100.00;101065.97;5113530;28;20027;-45
2023/09/17 06:14:38;;;;;;;0.20;0.20;;;;;;;14.87;100.00;101074.69;5113724;28;20028;-44
2023/09/17 06:17:04;;;;;;;0.10;0.10;;;;;;;14.91;100.00;101071.28;5112752;28;20027;-44
2023/09/17 06:19:30;;;;;;;0.10;0.10;;;;;;;14.97;100.00;101063.59;5113304;28;20028;-44
2023/09/17 06:21:55;;;;;;;0.10;0.10;;;;;;;15.06;100.00;101074.13;5113508;28;20053;-44
2023/09/17 06:24:20;;;;;;;0.10;0.10;;;;;;;15.12;100.00;101063.84;5112187;28;20099;-45
2023/09/17 06:26:46;;;;;;;0.10;0.10;;;;;;;15.17;100.00;101070.81;5113360;28;20076;-46
2023/09/17 06:29:11;;;;;;;0.10;0.10;;;;;;;15.20;100.00;101069.13;5112582;28;20081;-44
2023/09/17 06:31:37;;;;;;;0.10;0.10;;;;;;;15.25;100.00;101064.03;5113445;28;20064;-44
2023/09/17 06:34:03;;;;;;;0.10;0.10;;;;;;;15.29;100.00;101065.78;5113443;28;20383;-45
2023/09/17 06:36:29;;;;;;;0.10;0.10;;;;;;;15.34;100.00;101071.94;5112158;28;20016;-48
2023/09/17 06:38:54;;;;;;;0.10;0.10;;;;;;;15.37;100.00;101069.34;5113167;28;20028;-44
2023/09/17 06:41:19;;;;;;;0.10;0.10;;;;;;;15.43;100.00;101066.84;5112770;28;20055;-45
2023/09/17 06:43:46;;;;;;;0.10;0.10;;;;;;;15.46;100.00;101068.63;5116273;28;20083;-45
2023/09/17 06:46:11;;;;;;;0.10;0.10;;;;;;;15.51;100.00;101066.09;5117696;28;20039;-44
2023/09/17 06:48:36;;;;;;;0.10;0.10;;;;;;;15.56;100.00;101069.63;5117480;28;20027;-44
2023/09/17 06:51:02;;;;;;;0.10;0.10;;;;;;;15.58;100.00;101058.38;5116656;28;20488;-48
2023/09/17 06:53:27;;;;;;;0.10;0.10;;;;;;;15.63;100.00;101071.41;5116915;28;20039;-44
2023/09/17 06:55:53;;;;;;;0.10;0.10;;;;;;;15.67;100.00;101062.81;5117173;28;20512;-44
2023/09/17 06:58:18;;;;;;;0.10;0.10;;;;;;;15.71;100.00;101067.22;5115890;28;20130;-45
2023/09/17 07:00:44;;;;;;;0.10;0.10;;;;;;;15.75;100.00;101071.59;5117017;28;20020;-47
2023/09/17 07:03:09;;;;;;;0.10;0.10;;;;;;;15.80;100.00;101064.72;5117014;27;20116;-45
2023/09/17 07:05:34;;;;;;;0.10;0.10;;;;;;;15.84;100.00;101065.66;5115948;27;20058;-47
2023/09/17 07:08:01;;;;;;;0.00;0.00;;;;;;;15.90;100.00;101059.66;5116922;28;20035;-45
2023/09/17 07:10:26;;;;;;;0.00;0.00;;;;;;;15.96;100.00;101065.78;5116702;28;20051;-44
2023/09/17 07:12:52;;;;;;;0.10;0.10;;;;;;;16.07;100.00;101067.63;5116368;28;20100;-46
2023/09/17 07:15:18;;;;;;;0.08;0.08;;;;;;;16.13;100.00;101065.94;5116490;28;20378;-45
2023/09/17 07:17:44;;;;;;;0.05;0.05;;;;;;;16.21;100.00;101065.16;5117027;28;20024;-47
2023/09/17 07:20:13;;;;;;;0.03;0.03;;;;;;;16.26;100.00;101071.28;5116043;28;20031;-44
2023/09/17 07:22:38;;;;;;;0.10;0.10;;;;;;;16.29;100.00;101064.38;5116821;28;20039;-45
2023/09/17 07:25:04;;;;;;;0.00;0.00;;;;;;;16.33;100.00;101070.47;5116663;28;20101;-48
2023/09/17 07:27:30;;;;;;;0.10;0.10;;;;;;;16.37;100.00;101067.06;5115696;28;20030;-44
2023/09/17 07:29:56;;;;;;;0.00;0.00;;;;;;;16.38;100.00;101068.78;5116552;28;20103;-45
2023/09/17 07:32:22;;;;;;;0.10;0.10;;;;;;;16.43;100.00;101066.22;5115638;28;20031;-44
2023/09/17 07:34:47;;;;;;;0.10;0.10;;;;;;;16.46;100.00;101061.94;5116746;28;20020;-44
2023/09/17 07:37:13;;;;;;;0.10;0.10;;;;;;;16.50;100.00;101061.94;5116347;28;20030;-45
2023/09/17 07:39:39;;;;;;;0.10;0.10;;;;;;;16.58;100.00;101060.31;5115449;28;20085;-46
2023/09/17 07:42:05;;;;;;;0.10;0.10;;;;;;;16.61;100.00;101060.31;5116526;28;20028;-45
2023/09/17 07:44:30;;;;;;;0.10;0.10;;;;;;;16.72;100.00;101061.28;5116148;28;20023;-46
2023/09/17 07:46:55;;;;;;;0.10;0.10;;;;;;;16.79;100.00;101052.63;5115575;28;20456;-45
2023/09/17 07:49:26;;;;;;;0.10;0.10;;;;;;;16.84;100.00;101055.28;5116131;28;20482;-46
2023/09/17 07:51:51;;;;;;;0.10;0.10;;;;;;;16.85;100.00;101053.53;5116115;28;20016;-46
2023/09/17 07:54:17;;;;;;;0.10;0.10;;;;;;;16.92;100.00;101058.81;5115123;28;20027;-47
2023/09/17 07:56:42;;;;;;;0.10;0.10;;;;;;;16.97;100.00;101058.00;5116017;28;20040;-46
2023/09/17 07:59:07;;;;;;;0.00;0.00;;;;;;;17.00;100.00;101061.47;5116123;27;20051;-45
2023/09/17 08:01:33;;;;;;;0.10;0.10;;;;;;;17.01;100.00;101065.84;5114990;28;20030;-45
2023/09/17 08:03:58;;;;;;;0.08;0.08;;;;;;;17.06;100.00;101073.69;5116030;28;20024;-45
2023/09/17 08:06:25;;;;;;;0.08;0.08;;;;;;;17.07;100.00;101073.69;5115599;28;20019;-46
2023/09/17 08:08:51;;;;;;;0.10;0.10;;;;;;;17.09;100.00;101073.69;5115149;28;20024;-45
2023/09/17 08:11:16;;;;;;;0.10;0.10;;;;;;;17.09;100.00;101078.91;5115382;28;20038;-44
2023/09/17 08:13:42;;;;;;;0.10;0.10;;;;;;;17.15;100.00;101083.31;5115907;27;20034;-44
2023/09/17 08:16:07;;;;;;;0.00;0.00;;;;;;;17.16;100.00;101079.81;5114864;27;20485;-47
2023/09/17 08:18:32;;;;;;;0.10;0.10;;;;;;;17.20;100.00;101084.19;5115137;28;20036;-48
2023/09/17 08:20:58;;;;;;;0.10;0.10;;;;;;;17.21;100.00;101083.31;5115596;28;20107;-48
2023/09/17 08:23:24;;;;;;;0.10;0.10;;;;;;;17.23;100.00;101082.47;5114518;28;20060;-46
2023/09/17 08:25:50;;;;;;;0.10;0.10;;;;;;;17.32;100.00;101078.19;5115716;28;20114;-45
2023/09/17 08:28:16;;;;;;;0.10;0.10;;;;;;;17.43;100.00;101085.19;5115420;28;20032;-47
2023/09/17 08:30:41;;;;;;;0.00;0.00;;;;;;;17.47;100.00;101079.97;5114730;28;20020;-45
2023/09/17 08:33:09;;;;;;;0.10;0.10;;;;;;;17.52;100.00;101078.25;5115441;28;20026;-45
2023/09/17 08:35:35;;;;;;;0.10;0.10;;;;;;;17.51;100.00;101081.75;5115058;28;20023;-45
2023/09/17 08:38:00;;;;;;;0.00;0.00;;;;;;;17.49;100.00;101089.53;5114225;28;20019;-44
2023/09/17 08:40:27;;;;;;;0.00;0.00;;;;;;;17.53;100.00;101088.72;5115224;28;20059;-45
2023/09/17 08:42:54;;;;;;;0.10;0.10;;;;;;;17.51;100.00;101086.97;5114524;28;20043;-45
2023/09/17 08:45:21;;;;;;;0.10;0.10;;;;;;;17.59;100.00;101086.13;5114989;28;20037;-45
2023/09/17 08:47:47;;;;;;;0.10;0.10;;;;;;;17.77;100.00;101080.09;5115145;28;20027;-45
2023/09/17 08:50:12;;;;;;;0.00;0.00;;;;;;;17.93;100.00;101085.41;5113919;28;20031;-44
2023/09/17 08:52:41;;;;;;;0.10;0.10;;;;;;;18.07;100.00;101088.91;5114905;28;20035;-45
2023/09/17 08:55:09;;;;;;;0.00;0.00;;;;;;;18.23;100.00;101092.44;5114923;28;20462;-48
2023/09/17 08:57:37;;;;;;;0.00;0.00;;;;;;;18.35;100.00;101093.34;5113575;28;20391;-45
2023/09/17 09:00:08;;;;;;;0.00;0.00;;;;;;;18.38;100.00;101093.34;5114883;28;20039;-44
2023/09/17 09:02:40;;;;;;;0.10;0.10;;;;;;;18.40;100.00;101097.69;5114447;28;20019;-44
2023/09/17 09:05:08;;;;;;;0.10;0.10;;;;;;;18.35;100.00;101103.78;5113248;28;20030;-45
2023/09/17 09:07:34;;;;;;;0.10;0.10;;;;;;;18.26;100.00;101104.63;5114350;28;20368;-45
2023/09/17 09:10:01;;;;;;;0.10;0.10;;;;;;;18.26;100.00;101108.09;5114756;28;20031;-47
2023/09/17 09:12:27;;;;;;;0.10;0.10;;;;;;;18.34;100.00;101110.72;5113565;28;20023;-44
2023/09/17 09:14:53;;;;;;;0.00;0.00;;;;;;;18.36;100.00;101110.72;5114738;28;20031;-46
2023/09/17 09:17:19;;;;;;;0.00;0.00;;;;;;;18.50;100.00;101113.34;5114249;28;20055;-45
2023/09/17 09:19:44;;;;;;;0.10;0.10;;;;;;;18.45;100.00;101125.53;5113491;28;20055;-45
2023/09/17 09:22:10;;;;;;;0.00;0.00;;;;;;;18.49;100.00;101116.81;5114385;28;20019;-46
2023/09/17 09:24:48;;;;;;;0.00;0.00;;;;;;;18.51;100.00;101118.56;5114301;28;20495;-45
2023/09/17 09:27:14;;;;;;;0.10;0.10;;;;;;;18.42;100.00;101122.06;5113464;28;20019;-45
2023/09/17 09:29:43;;;;;;;0.00;0.00;;;;;;;18.45;100.00;101122.91;5114325;28;20012;-45
2023/09/17 09:32:10;;;;;;;0.00;0.00;;;;;;;18.42;100.00;101116.84;5113332;28;20378;-50
2023/09/17 09:34:42;;;;;;;0.00;0.00;;;;;;;18.46;100.00;101112.47;5114073;28;20091;-45
2023/09/17 09:37:08;;;;;;;0.08;0.08;;;;;;;18.52;100.00;101103.78;5114262;28;20016;-45
2023/09/17 09:39:37;;;;;;;0.10;0.10;;;;;;;18.51;100.00;101105.50;5113138;28;20100;-46
2023/09/17 09:42:07;;;;;;;0.10;0.10;;;;;;;18.50;100.00;101102.91;5114241;27;20058;-44
2023/09/17 09:44:34;;;;;;;0.10;0.10;;;;;;;18.51;100.00;101102.91;5113711;28;20032;-45
2023/09/17 09:47:01;;;;;;;0.10;0.10;;;;;;;18.50;100.00;101097.69;5113413;28;20026;-47
2023/09/17 09:49:26;;;;;;;0.03;0.03;;;;;;;18.50;100.00;101089.84;5113545;28;20510;-45
2023/09/17 09:51:52;;;;;;;0.10;0.10;;;;;;;18.56;100.00;101095.94;5113860;27;20059;-46
2023/09/17 09:54:18;;;;;;;0.00;0.00;;;;;;;18.59;100.00;101092.47;5112833;28;20016;-46
2023/09/17 09:56:47;;;;;;;0.10;0.10;;;;;;;18.48;100.00;101105.53;5113560;28;20376;-46
2023/09/17 09:59:13;;;;;;;0.00;0.00;;;;;;;18.45;100.00;101109.84;5113303;28;20160;-44
2023/09/17 10:01:39;;;;;;;0.00;0.00;;;;;;;18.38;100.00;101098.56;5113363;28;20094;-46
2023/09/17 10:04:07;;;;;;;0.00;0.00;;;;;;;18.27;100.00;101101.16;5113896;28;20032;-45
2023/09/17 10:06:35;;;;;;;0.10;0.10;;;;;;;18.25;100.00;101102.88;5113347;28;20371;-45
2023/09/17 10:09:02;;;;;;;0.00;0.00;;;;;;;18.19;100.00;101095.94;5112921;28;20020;-46
2023/09/17 10:11:28;;;;;;;0.10;0.10;;;;;;;18.15;100.00;101101.97;5113189;28;20019;-44
2023/09/17 10:13:53;;;;;;;0.10;0.10;;;;;;;18.10;100.00;101094.16;5113540;28;20030;-45
2023/09/17 10:16:20;;;;;;;0.10;0.10;;;;;;;18.05;100.00;101103.72;5112130;28;20374;-47
2023/09/17 10:18:46;;;;;;;0.00;0.00;;;;;;;18.03;100.00;101097.59;5113150;28;20019;-45
2023/09/17 10:21:14;;;;;;;0.00;0.00;;;;;;;18.06;100.00;101095.03;5112729;28;20034;-44
2023/09/17 10:23:39;;;;;;;0.10;0.10;;;;;;;18.04;100.00;101088.91;5113515;28;20058;-44
2023/09/17 10:26:06;;;;;;;0.10;0.10;;;;;;;18.20;100.00;101096.78;5113364;28;20068;-45
2023/09/17 10:28:34;;;;;;;0.10;0.10;;;;;;;18.21;100.00;101093.31;5112281;28;20027;-45
2023/09/17 10:31:01;;;;;;;0.10;0.10;;;;;;;18.27;100.00;101085.50;5113587;28;20019;-45
2023/09/17 10:33:29;;;;;;;0.10;0.10;;;;;;;18.27;100.00;101082.91;5113250;28;20031;-46
2023/09/17 10:35:57;;;;;;;0.10;0.10;;;;;;;18.33;100.00;101080.25;5112737;28;20149;-46
2023/09/17 10:38:22;;;;;;;;;;;;;;;18.44;100.00;101085.50;5113282;28;20470;-44
2023/09/17 10:40:50;;;;;;;0.08;0.08;;;;;;;18.34;100.00;101081.16;5113205;28;19918;-47
2023/09/17 10:43:17;;;;;;;0.10;0.10;;;;;;;18.33;100.00;101082.03;5112194;28;20484;-45
2023/09/17 10:45:44;;;;;;;0.10;0.10;;;;;;;18.29;100.00;101078.53;5113143;28;20467;-45
2023/09/17 10:48:11;;;;;;;0.00;0.00;;;;;;;18.38;100.00;101078.53;5113323;28;20024;-44
2023/09/17 10:50:38;;;;;;;0.03;0.03;;;;;;;18.63;100.00;101075.97;5112420;28;20031;-45
2023/09/17 10:53:04;;;;;;;0.10;0.10;;;;;;;18.77;100.00;101081.16;5113171;28;20094;-46
2023/09/17 10:55:36;;;;;;;0.00;0.00;;;;;;;19.10;100.00;101084.63;5112720;28;20505;-44
2023/09/17 10:58:19;;;;;;;0.10;0.10;;;;;;;19.04;100.00;101089.88;5112074;28;20433;-48
2023/09/17 11:00:46;;;;;;;0.00;0.00;;;;;;;19.06;100.00;101085.53;5113224;28;20032;-45
2023/09/17 11:03:17;;;;;;;0.10;0.10;;;;;;;19.21;100.00;101082.88;5112769;28;20490;-45
2023/09/17 11:05:43;;;;;;;0.08;0.08;;;;;;;19.33;100.00;101075.88;5112244;28;20038;-45
2023/09/17 11:08:09;;;;;;;0.00;0.00;;;;;;;19.40;100.00;101081.06;5113180;28;20054;-47
2023/09/17 11:10:41;;;;;;;0.00;0.00;;;;;;;19.52;100.00;101087.13;5112095;28;20024;-45
2023/09/17 11:13:09;;;;;;;0.00;0.00;;;;;;;19.89;100.00;101087.00;5113027;28;20110;-45